Time;durP1;ratioP1;P1;durP2;ratioP2;P2;SDS_P1;SDS_P2;PMS_P1;PMS_P2;Temp;Humidity;BMP_temperature;BMP_pressure;BME280_temperature;BME280_humidity;BME280_pressure;Samples;Min_cycle;Max_cycle;Signal;HPM_P1;HPM_P2
2021/03/03 00:01:04;;;;;;;8.23;2.83;;;-2.60;99.90;;;;;;4994224;28;20758;-68
2021/03/03 00:03:30;;;;;;;4.82;2.70;;;-2.50;99.90;;;;;;4988061;28;20214;-69
2021/03/03 00:05:56;;;;;;;4.55;2.30;;;-2.60;99.90;;;;;;5003890;28;20680;-69
2021/03/03 00:08:21;;;;;;;4.63;2.38;;;-2.60;99.90;;;;;;5003114;28;20284;-68
2021/03/03 00:10:47;;;;;;;3.30;2.15;;;-2.70;99.90;;;;;;5003286;28;20271;-69
2021/03/03 00:13:13;;;;;;;7.70;2.40;;;-2.70;99.90;;;;;;5003913;28;20199;-68
2021/03/03 00:15:38;;;;;;;4.15;2.20;;;-2.80;99.90;;;;;;5003091;28;20230;-68
2021/03/03 00:18:04;;;;;;;3.65;1.83;;;-2.90;99.90;;;;;;5005375;28;20225;-68
2021/03/03 00:20:30;;;;;;;6.78;2.13;;;-2.90;99.90;;;;;;4986647;28;20221;-70
2021/03/03 00:22:56;;;;;;;5.57;2.08;;;-3.00;99.90;;;;;;4985364;28;20559;-69
2021/03/03 00:25:21;;;;;;;6.18;2.30;;;-3.00;99.90;;;;;;4999298;28;20195;-68
2021/03/03 00:27:47;;;;;;;2.83;1.95;;;-3.00;99.90;;;;;;5004130;28;20743;-68
2021/03/03 00:30:14;;;;;;;4.47;2.50;;;-3.00;99.90;;;;;;5001972;28;20198;-68
2021/03/03 00:32:47;;;;;;;8.70;2.30;;;-3.00;99.90;;;;;;5003452;28;20201;-70
2021/03/03 00:35:13;;;;;;;4.32;2.30;;;-3.10;99.90;;;;;;4999597;28;20619;-67
2021/03/03 00:37:39;;;;;;;6.10;2.47;;;-3.10;99.90;;;;;;5002632;28;20203;-68
2021/03/03 00:40:06;;;;;;;4.70;2.35;;;-3.10;99.90;;;;;;5000489;28;20231;-69
2021/03/03 00:42:32;;;;;;;5.03;2.03;;;-3.10;99.90;;;;;;5002558;28;20564;-70
2021/03/03 00:44:58;;;;;;;3.65;2.08;;;-3.20;99.90;;;;;;5001560;28;20203;-68
2021/03/03 00:47:24;;;;;;;3.53;2.05;;;-3.20;99.90;;;;;;5004127;28;20760;-69
2021/03/03 00:49:49;;;;;;;5.00;2.10;;;-3.20;99.90;;;;;;4999796;28;20261;-67
2021/03/03 00:52:15;;;;;;;4.22;2.42;;;-3.20;99.90;;;;;;5002643;28;20257;-67
2021/03/03 00:54:41;;;;;;;3.70;2.28;;;-3.20;99.90;;;;;;4986767;28;20286;-68
2021/03/03 00:57:06;;;;;;;7.65;2.20;;;-3.20;99.90;;;;;;4983686;28;20206;-67
2021/03/03 00:59:32;;;;;;;4.90;2.10;;;-3.30;99.90;;;;;;4998553;28;20303;-69
2021/03/03 01:01:58;;;;;;;4.20;2.35;;;-3.30;99.90;;;;;;5003768;28;20280;-67
2021/03/03 01:04:23;;;;;;;4.20;2.22;;;-3.30;99.90;;;;;;5012455;28;20253;-68
2021/03/03 01:06:49;;;;;;;9.25;2.80;;;-3.40;99.90;;;;;;4993169;28;20637;-68
2021/03/03 01:09:15;;;;;;;4.70;2.55;;;-3.40;99.90;;;;;;5020099;28;20761;-69
2021/03/03 01:11:40;;;;;;;4.07;2.50;;;-3.40;99.90;;;;;;5014559;28;20225;-70
2021/03/03 01:14:06;;;;;;;6.38;2.50;;;-3.40;99.90;;;;;;5015978;28;20217;-67
2021/03/03 01:16:32;;;;;;;10.57;3.15;;;-3.40;99.90;;;;;;5005443;28;20308;-67
2021/03/03 01:18:58;;;;;;;5.85;2.70;;;-3.40;99.90;;;;;;5018468;28;20198;-69
2021/03/03 01:21:24;;;;;;;6.63;3.08;;;-3.40;99.90;;;;;;5013700;28;20194;-68
2021/03/03 01:23:49;;;;;;;5.35;2.80;;;-3.30;99.90;;;;;;5019455;28;20905;-69
2021/03/03 01:26:15;;;;;;;6.10;3.13;;;-3.30;99.90;;;;;;4992372;28;20286;-69
2021/03/03 01:28:41;;;;;;;8.23;2.88;;;-3.30;99.90;;;;;;5015695;28;20205;-68
2021/03/03 01:31:06;;;;;;;11.55;3.60;;;-3.40;99.90;;;;;;5004455;28;20204;-67
2021/03/03 01:33:32;;;;;;;8.63;3.53;;;-3.30;99.90;;;;;;5016527;28;20217;-67
2021/03/03 01:35:58;;;;;;;8.77;3.83;;;-3.30;99.90;;;;;;5013454;28;20206;-67
2021/03/03 01:38:24;;;;;;;6.63;4.00;;;-3.20;99.90;;;;;;5019085;28;20202;-67
2021/03/03 01:40:50;;;;;;;9.32;4.20;;;-3.10;99.90;;;;;;5015371;28;20698;-69
2021/03/03 01:43:16;;;;;;;6.25;3.58;;;-3.00;99.90;;;;;;5022914;28;20232;-69
2021/03/03 01:45:42;;;;;;;10.48;3.70;;;-3.00;99.90;;;;;;5003036;28;20207;-68
2021/03/03 01:48:08;;;;;;;5.78;3.47;;;-3.00;99.90;;;;;;5002239;28;20225;-69
2021/03/03 01:50:34;;;;;;;8.98;3.42;;;-3.10;99.90;;;;;;5011330;28;20195;-68
2021/03/03 01:53:01;;;;;;;8.43;3.50;;;-3.20;99.90;;;;;;5020538;28;20248;-69
2021/03/03 01:55:27;;;;;;;9.63;3.72;;;-3.20;99.90;;;;;;5015031;28;20208;-68
2021/03/03 01:57:52;;;;;;;5.20;2.78;;;-3.30;99.90;;;;;;5016084;28;20209;-68
2021/03/03 02:00:19;;;;;;;8.25;3.38;;;-3.40;99.90;;;;;;5016523;28;21048;-70
2021/03/03 02:02:45;;;;;;;10.43;3.33;;;-3.40;99.90;;;;;;5020452;28;20222;-68
2021/03/03 02:05:12;;;;;;;5.78;3.13;;;-3.40;99.90;;;;;;5018329;28;20603;-70
2021/03/03 02:07:58;;;;;;;5.88;2.97;;;-3.50;99.90;;;;;;5023832;28;20208;-69
2021/03/03 02:10:51;;;;;;;6.88;2.90;;;-3.50;99.90;;;;;;5019036;28;20248;-67
2021/03/03 02:13:24;;;;;;;10.18;2.75;;;-3.50;99.90;;;;;;5021597;28;20201;-68
2021/03/03 02:15:51;;;;;;;5.13;2.78;;;-3.60;99.90;;;;;;5019030;28;20673;-69
2021/03/03 02:18:18;;;;;;;8.40;3.47;;;-3.60;99.90;;;;;;5017960;28;20206;-68
2021/03/03 02:21:00;;;;;;;8.38;3.35;;;-3.50;99.90;;;;;;5021032;28;20197;-67
2021/03/03 02:24:04;;;;;;;8.00;3.10;;;-3.50;99.90;;;;;;5015078;28;20284;-69
2021/03/03 02:26:34;;;;;;;7.75;3.30;;;-3.50;99.90;;;;;;5012049;28;20214;-67
2021/03/03 02:29:05;;;;;;;4.95;3.10;;;-3.60;99.90;;;;;;5022522;28;20710;-68
2021/03/03 02:31:33;;;;;;;10.90;3.33;;;-3.70;99.90;;;;;;5021591;28;20505;-67
2021/03/03 02:34:00;;;;;;;9.63;3.55;;;-3.70;99.90;;;;;;4999933;28;20281;-68
2021/03/03 02:36:27;;;;;;;7.72;3.00;;;-3.70;99.90;;;;;;5008014;28;20672;-68
2021/03/03 02:38:53;;;;;;;11.82;3.58;;;-3.80;99.90;;;;;;5007988;28;20265;-70
2021/03/03 02:41:19;;;;;;;6.97;3.65;;;-3.80;99.90;;;;;;5012023;28;20272;-70
2021/03/03 02:43:45;;;;;;;7.47;3.63;;;-3.80;99.90;;;;;;5014354;28;20210;-67
2021/03/03 02:46:12;;;;;;;8.70;3.50;;;-3.70;99.90;;;;;;5022857;28;20205;-67
2021/03/03 02:48:38;;;;;;;8.45;3.03;;;-3.60;99.90;;;;;;5019543;28;20195;-66
2021/03/03 02:51:05;;;;;;;7.93;3.58;;;-3.70;99.90;;;;;;5008362;28;20209;-67
2021/03/03 02:53:31;;;;;;;13.90;3.90;;;-3.70;99.90;;;;;;5006101;28;20206;-68
2021/03/03 02:55:57;;;;;;;12.18;4.18;;;-3.40;99.90;;;;;;5021972;28;20198;-68
2021/03/03 02:58:22;;;;;;;8.43;3.70;;;-3.30;99.90;;;;;;5024407;28;20222;-68
2021/03/03 03:00:57;;;;;;;5.88;3.38;;;-3.30;99.90;;;;;;5017778;28;20234;-68
2021/03/03 03:03:35;;;;;;;11.40;3.70;;;-3.20;99.90;;;;;;5021851;28;20202;-67
2021/03/03 03:06:36;;;;;;;12.85;3.72;;;-3.10;99.90;;;;;;5023632;28;20201;-68
2021/03/03 03:09:09;;;;;;;9.95;4.07;;;-3.10;99.90;;;;;;4977199;28;20202;-68
2021/03/03 03:11:37;;;;;;;12.18;4.13;;;-2.90;99.90;;;;;;5021514;28;20305;-68
2021/03/03 03:14:11;;;;;;;11.77;4.28;;;-2.90;99.90;;;;;;5019346;28;20206;-69
2021/03/03 03:16:39;;;;;;;15.05;4.00;;;-2.90;99.90;;;;;;5020523;28;20186;-70
2021/03/03 03:19:12;;;;;;;8.02;4.10;;;-2.80;99.90;;;;;;5024504;28;20198;-68
2021/03/03 03:21:44;;;;;;;13.50;4.43;;;-2.80;99.90;;;;;;5021301;28;20194;-71
2021/03/03 03:24:11;;;;;;;10.32;3.78;;;-2.70;99.90;;;;;;5005519;28;20207;-68
2021/03/03 03:26:38;;;;;;;7.07;3.88;;;-2.70;99.90;;;;;;5021624;28;20193;-67
2021/03/03 03:29:06;;;;;;;6.20;3.85;;;-2.70;99.90;;;;;;5016470;28;20275;-67
2021/03/03 03:31:33;;;;;;;7.32;3.78;;;-2.80;99.90;;;;;;5022344;28;20190;-69
2021/03/03 03:34:00;;;;;;;8.48;3.90;;;-2.80;99.90;;;;;;5018424;28;20194;-68
2021/03/03 03:36:27;;;;;;;8.25;3.40;;;-2.80;99.90;;;;;;5022069;28;20198;-69
2021/03/03 03:38:52;;;;;;;6.75;3.83;;;-2.90;99.90;;;;;;5021342;28;20612;-69
2021/03/03 03:41:19;;;;;;;10.13;3.80;;;-3.00;99.90;;;;;;5020313;28;20198;-69
2021/03/03 03:43:46;;;;;;;9.52;3.28;;;-3.10;99.90;;;;;;5022655;28;20621;-68
2021/03/03 03:46:12;;;;;;;9.63;3.67;;;-3.10;99.90;;;;;;5020461;28;20645;-69
2021/03/03 03:48:39;;;;;;;7.65;3.10;;;-3.10;99.90;;;;;;5023097;28;20281;-68
2021/03/03 03:51:06;;;;;;;8.25;3.22;;;-3.20;99.90;;;;;;5020470;28;20202;-68
2021/03/03 03:53:32;;;;;;;6.00;3.33;;;-3.20;99.90;;;;;;5015420;28;20298;-70
2021/03/03 03:55:59;;;;;;;12.65;3.53;;;-3.30;99.90;;;;;;5019578;28;20222;-70
2021/03/03 03:58:25;;;;;;;9.98;3.38;;;-3.40;99.90;;;;;;5015498;28;20194;-68
2021/03/03 04:00:51;;;;;;;11.25;3.67;;;-3.40;99.90;;;;;;5017727;28;20194;-68
2021/03/03 04:03:17;;;;;;;6.95;3.30;;;-3.40;99.90;;;;;;5003976;28;20257;-69
2021/03/03 04:05:42;;;;;;;6.38;3.40;;;-3.40;99.90;;;;;;5013411;28;20227;-68
2021/03/03 04:08:08;;;;;;;8.57;3.78;;;-3.40;99.90;;;;;;5017559;28;20518;-67
2021/03/03 04:10:34;;;;;;;10.13;3.70;;;-3.40;99.90;;;;;;5025119;28;20220;-68
2021/03/03 04:13:00;;;;;;;14.10;4.45;;;-3.40;99.90;;;;;;5006077;28;20730;-68
2021/03/03 04:15:26;;;;;;;8.20;3.75;;;-3.40;99.90;;;;;;5022396;28;20248;-67
2021/03/03 04:17:53;;;;;;;7.20;3.53;;;-3.40;99.90;;;;;;5022507;28;20206;-68
2021/03/03 04:20:20;;;;;;;10.43;3.40;;;-3.40;99.90;;;;;;5010531;28;20202;-68
2021/03/03 04:22:46;;;;;;;11.20;4.22;;;-3.40;99.90;;;;;;5025849;28;20208;-68
2021/03/03 04:25:15;;;;;;;7.65;3.47;;;-3.50;99.90;;;;;;5023271;28;20812;-68
2021/03/03 04:27:40;;;;;;;6.18;3.30;;;-3.50;99.90;;;;;;5020515;28;20253;-67
2021/03/03 04:30:12;;;;;;;13.60;4.55;;;-3.60;99.90;;;;;;5023281;28;20210;-67
2021/03/03 04:32:38;;;;;;;15.30;4.20;;;-3.70;99.90;;;;;;5024370;28;20197;-68
2021/03/03 04:35:05;;;;;;;12.65;5.03;;;-3.70;99.90;;;;;;5021767;28;20573;-68
2021/03/03 04:37:31;;;;;;;11.10;4.45;;;-3.80;99.90;;;;;;5023526;28;20206;-68
2021/03/03 04:39:57;;;;;;;7.85;4.35;;;-3.90;99.90;;;;;;5016543;28;20204;-68
2021/03/03 04:42:23;;;;;;;7.90;4.20;;;-4.00;99.90;;;;;;5023962;28;20201;-69
2021/03/03 04:44:48;;;;;;;11.60;4.40;;;-4.10;99.90;;;;;;5024687;28;20301;-67
2021/03/03 04:47:15;;;;;;;13.10;4.05;;;-4.00;99.90;;;;;;5025214;28;20989;-68
2021/03/03 04:49:40;;;;;;;18.55;3.75;;;-4.00;99.90;;;;;;5019786;28;20194;-68
2021/03/03 04:52:06;;;;;;;8.45;3.60;;;-4.00;99.90;;;;;;5027397;28;20815;-70
2021/03/03 04:54:34;;;;;;;7.03;3.33;;;-4.00;99.90;;;;;;5024980;28;20210;-69
2021/03/03 04:57:00;;;;;;;7.68;3.60;;;-4.00;99.90;;;;;;5024108;28;20600;-68
2021/03/03 04:59:25;;;;;;;8.85;3.83;;;-4.00;99.90;;;;;;5028640;28;20207;-68
2021/03/03 05:01:51;;;;;;;6.10;3.20;;;-4.00;99.90;;;;;;5026487;28;20273;-68
2021/03/03 05:04:17;;;;;;;8.57;3.65;;;-3.90;99.90;;;;;;5024479;28;20223;-68
2021/03/03 05:06:42;;;;;;;8.15;3.92;;;-3.90;99.90;;;;;;5025340;28;20277;-68
2021/03/03 05:09:08;;;;;;;8.50;3.97;;;-3.90;99.90;;;;;;5007792;28;20201;-68
2021/03/03 05:11:34;;;;;;;6.43;3.63;;;-3.90;99.90;;;;;;5026902;28;20233;-68
2021/03/03 05:13:59;;;;;;;14.80;3.92;;;-3.80;99.90;;;;;;5012235;28;20203;-67
2021/03/03 05:16:25;;;;;;;8.07;3.97;;;-3.80;99.90;;;;;;5009830;28;20790;-68
2021/03/03 05:18:51;;;;;;;11.10;3.60;;;-3.80;99.90;;;;;;5028955;28;20198;-70
2021/03/03 05:21:16;;;;;;;5.88;3.22;;;-3.80;99.90;;;;;;5029556;28;20202;-68
2021/03/03 05:23:42;;;;;;;10.45;3.85;;;-3.70;99.90;;;;;;5010676;28;20264;-69
2021/03/03 05:26:07;;;;;;;9.20;3.75;;;-3.70;99.90;;;;;;5028317;28;20560;-68
2021/03/03 05:28:34;;;;;;;6.60;3.45;;;-3.60;99.90;;;;;;5030185;28;20243;-69
2021/03/03 05:31:00;;;;;;;7.05;3.40;;;-3.60;99.90;;;;;;5030710;28;20198;-67
2021/03/03 05:33:32;;;;;;;14.98;4.22;;;-3.70;99.90;;;;;;5027015;28;20698;-69
2021/03/03 05:36:00;;;;;;;6.63;3.73;;;-3.60;99.90;;;;;;5024157;28;20273;-68
2021/03/03 05:38:26;;;;;;;4.80;2.97;;;-3.60;99.90;;;;;;5021223;28;20210;-68
2021/03/03 05:40:53;;;;;;;6.22;3.20;;;-3.60;99.90;;;;;;5015651;28;20193;-67
2021/03/03 05:43:20;;;;;;;7.88;3.35;;;-3.60;99.90;;;;;;5015401;28;20242;-67
2021/03/03 05:45:46;;;;;;;5.63;3.22;;;-3.60;99.90;;;;;;5017402;28;20195;-66
2021/03/03 05:48:24;;;;;;;6.13;3.10;;;-3.60;99.90;;;;;;5019167;28;20229;-67
2021/03/03 05:50:55;;;;;;;4.95;3.15;;;-3.70;99.90;;;;;;5017240;28;20196;-68
2021/03/03 05:53:22;;;;;;;5.65;3.10;;;-3.70;99.90;;;;;;5017708;28;20277;-67
2021/03/03 05:55:48;;;;;;;4.78;3.13;;;-3.60;99.90;;;;;;5020622;28;20205;-68
2021/03/03 05:58:15;;;;;;;9.15;3.13;;;-3.70;99.90;;;;;;5029631;28;20225;-67
2021/03/03 06:00:41;;;;;;;6.22;3.22;;;-3.60;99.90;;;;;;5028040;28;20281;-68
2021/03/03 06:03:07;;;;;;;6.90;3.90;;;-3.50;99.90;;;;;;5026685;28;20333;-67
2021/03/03 06:05:34;;;;;;;12.88;3.80;;;-3.50;99.90;;;;;;5024026;28;20226;-68
2021/03/03 06:08:00;;;;;;;6.40;3.58;;;-3.50;99.90;;;;;;5027011;28;20198;-67
2021/03/03 06:10:26;;;;;;;7.47;3.47;;;-3.40;99.90;;;;;;5025634;28;20252;-68
2021/03/03 06:12:52;;;;;;;9.07;3.40;;;-3.50;99.90;;;;;;5005528;28;20201;-67
2021/03/03 06:15:18;;;;;;;8.30;2.63;;;-3.50;99.90;;;;;;5022788;28;20202;-68
2021/03/03 06:17:44;;;;;;;8.23;3.70;;;-3.50;99.90;;;;;;5029930;28;20193;-67
2021/03/03 06:20:11;;;;;;;6.75;3.22;;;-3.60;99.90;;;;;;5028863;28;20206;-70
2021/03/03 06:22:37;;;;;;;4.85;2.97;;;-3.60;99.90;;;;;;5010460;28;20202;-67
2021/03/03 06:25:17;;;;;;;6.85;3.15;;;-3.70;99.90;;;;;;5026104;28;20208;-70
2021/03/03 06:27:42;;;;;;;5.25;3.10;;;-3.60;99.90;;;;;;5029577;28;20202;-67
2021/03/03 06:30:10;;;;;;;6.88;3.28;;;-3.60;99.90;;;;;;5025579;28;20256;-70
2021/03/03 06:32:55;;;;;;;5.85;3.20;;;-3.60;99.90;;;;;;5031799;28;20677;-68
2021/03/03 06:35:32;;;;;;;8.50;3.88;;;-3.50;99.90;;;;;;5025600;28;20279;-67
2021/03/03 06:37:57;;;;;;;7.43;3.42;;;-3.40;99.90;;;;;;5028503;28;20284;-71
2021/03/03 06:40:23;;;;;;;7.93;3.47;;;-3.30;99.90;;;;;;5027022;28;21526;-70
2021/03/03 06:42:50;;;;;;;6.18;3.45;;;-3.20;99.90;;;;;;5028311;28;20221;-69
2021/03/03 06:45:26;;;;;;;11.98;3.92;;;-3.20;99.90;;;;;;5007665;28;20246;-67
2021/03/03 06:47:51;;;;;;;7.70;3.20;;;-3.10;99.90;;;;;;5025683;28;20206;-69
2021/03/03 06:50:18;;;;;;;7.28;3.35;;;-3.10;99.90;;;;;;5031705;28;20185;-66
2021/03/03 06:52:44;;;;;;;7.30;3.65;;;-3.10;99.90;;;;;;5028923;28;20281;-69
2021/03/03 06:55:11;;;;;;;8.05;3.90;;;-3.10;99.90;;;;;;5029874;28;20284;-68
2021/03/03 06:57:36;;;;;;;7.97;4.05;;;-3.00;99.90;;;;;;5028969;28;20198;-67
2021/03/03 07:00:07;;;;;;;8.07;4.00;;;-2.90;99.90;;;;;;5023043;28;20239;-69
2021/03/03 07:02:33;;;;;;;8.07;3.42;;;-2.80;99.90;;;;;;5024334;28;20281;-70
2021/03/03 07:04:59;;;;;;;10.25;4.40;;;-2.70;99.90;;;;;;5007815;28;21087;-68
2021/03/03 07:07:25;;;;;;;8.00;4.40;;;-2.50;99.90;;;;;;5024599;28;20190;-69
2021/03/03 07:09:59;;;;;;;8.00;4.30;;;-2.50;99.90;;;;;;5020722;28;20637;-68
2021/03/03 07:12:29;;;;;;;7.22;4.30;;;-2.40;99.90;;;;;;5022132;28;20201;-68
2021/03/03 07:14:56;;;;;;;10.52;4.93;;;-2.30;99.90;;;;;;5001232;28;20653;-69
2021/03/03 07:17:22;;;;;;;7.07;3.78;;;-2.30;99.90;;;;;;5021565;28;21074;-67
2021/03/03 07:19:59;;;;;;;11.13;4.57;;;-2.10;99.90;;;;;;5024540;28;20292;-68
2021/03/03 07:22:31;;;;;;;7.85;4.00;;;-2.10;99.90;;;;;;5020517;28;21215;-68
2021/03/03 07:25:09;;;;;;;7.22;3.90;;;-2.00;99.90;;;;;;5002241;28;20198;-70
2021/03/03 07:27:36;;;;;;;7.30;3.15;;;-2.00;99.90;;;;;;5022794;28;20218;-71
2021/03/03 07:30:08;;;;;;;6.28;3.60;;;-2.00;99.90;;;;;;5023368;28;20284;-70
2021/03/03 07:32:34;;;;;;;7.45;3.60;;;-2.00;99.90;;;;;;5006692;28;20202;-70
2021/03/03 07:35:00;;;;;;;6.15;3.45;;;-2.00;99.90;;;;;;5003242;28;20369;-69
2021/03/03 07:37:40;;;;;;;13.48;3.40;;;-1.90;99.90;;;;;;5007971;28;20293;-72
2021/03/03 07:40:13;;;;;;;5.32;3.05;;;-1.90;99.90;;;;;;5020516;28;20248;-69
2021/03/03 07:42:40;;;;;;;6.38;3.22;;;-1.80;99.90;;;;;;5028019;28;20209;-69
2021/03/03 07:45:13;;;;;;;5.53;3.55;;;-1.80;99.90;;;;;;5005838;28;20202;-69
2021/03/03 07:47:40;;;;;;;11.27;3.78;;;-1.70;99.90;;;;;;5030514;28;20636;-70
2021/03/03 07:50:18;;;;;;;12.30;3.28;;;-1.60;99.90;;;;;;5020782;28;20206;-71
2021/03/03 07:52:53;;;;;;;5.90;3.38;;;-1.60;99.90;;;;;;5012463;28;20209;-70
2021/03/03 07:55:20;;;;;;;15.40;3.33;;;-1.50;99.90;;;;;;5012701;28;20207;-70
2021/03/03 07:57:49;;;;;;;6.97;3.65;;;-1.50;99.90;;;;;;5013434;28;20199;-70
2021/03/03 08:00:25;;;;;;;7.35;3.70;;;-1.40;99.90;;;;;;5004098;28;20202;-70
2021/03/03 08:02:55;;;;;;;9.02;4.03;;;-1.40;99.90;;;;;;5013889;28;20220;-72
2021/03/03 08:05:29;;;;;;;8.70;4.07;;;-1.30;99.90;;;;;;5012683;28;20241;-72
2021/03/03 08:08:28;;;;;;;14.07;4.40;;;-1.30;99.90;;;;;;5017099;28;20201;-71
2021/03/03 08:11:00;;;;;;;8.40;4.00;;;-1.30;99.90;;;;;;5004116;28;20207;-69
2021/03/03 08:13:28;;;;;;;7.22;4.05;;;-1.30;99.90;;;;;;4999864;28;20210;-68
2021/03/03 08:16:02;;;;;;;6.35;3.67;;;-1.20;99.90;;;;;;5020839;28;20281;-68
2021/03/03 08:18:37;;;;;;;7.65;3.85;;;-1.30;99.90;;;;;;4999353;28;20201;-69
2021/03/03 08:21:08;;;;;;;7.07;3.70;;;-1.10;99.90;;;;;;5014300;28;20208;-69
2021/03/03 08:23:34;;;;;;;16.40;5.40;;;-1.10;99.90;;;;;;5018391;28;20202;-69
2021/03/03 08:26:00;;;;;;;6.60;3.72;;;-1.10;99.90;;;;;;5001123;28;20845;-67
2021/03/03 08:28:37;;;;;;;8.55;3.65;;;-1.10;99.90;;;;;;5021991;28;20202;-68
2021/03/03 08:33:54;;;;;;;9.18;3.75;;;-1.10;99.90;;;;;;5020910;28;20213;-68
2021/03/03 08:36:31;;;;;;;7.88;3.50;;;-1.20;99.90;;;;;;5020557;28;20336;-69
2021/03/03 08:38:57;;;;;;;6.57;3.25;;;-1.20;99.90;;;;;;5022494;28;20190;-69
2021/03/03 08:41:25;;;;;;;11.25;3.42;;;-1.10;99.90;;;;;;5022270;28;20233;-70
2021/03/03 08:44:12;;;;;;;8.80;3.65;;;-1.10;99.90;;;;;;5021198;28;20225;-69
2021/03/03 08:46:39;;;;;;;11.20;3.13;;;-1.00;99.90;;;;;;5019944;28;20196;-69
2021/03/03 08:49:04;;;;;;;9.82;3.85;;;-0.90;99.90;;;;;;5016505;28;20252;-69
2021/03/03 08:51:42;;;;;;;5.18;3.05;;;-0.90;99.90;;;;;;5020403;28;20193;-68
2021/03/03 08:54:18;;;;;;;7.38;3.30;;;-0.90;99.90;;;;;;5018961;28;20256;-67
2021/03/03 08:56:48;;;;;;;7.95;4.07;;;-0.80;99.90;;;;;;5020250;28;20547;-69
2021/03/03 08:59:32;;;;;;;6.53;3.60;;;-0.80;99.90;;;;;;5019519;28;20194;-71
2021/03/03 09:02:07;;;;;;;8.60;3.38;;;-0.70;99.90;;;;;;5018992;28;20329;-71
2021/03/03 09:04:42;;;;;;;4.75;2.65;;;-0.60;99.90;;;;;;5021040;28;20291;-72
2021/03/03 09:07:14;;;;;;;7.93;3.13;;;-0.70;99.90;;;;;;5018549;28;20212;-69
2021/03/03 09:09:48;;;;;;;9.07;2.80;;;-0.70;99.90;;;;;;5019961;28;20198;-70
2021/03/03 09:12:25;;;;;;;4.85;2.75;;;-0.70;99.90;;;;;;5019560;28;20187;-71
2021/03/03 09:14:55;;;;;;;4.35;3.00;;;-0.60;99.90;;;;;;4998772;28;20198;-70
2021/03/03 09:17:25;;;;;;;5.70;3.38;;;-0.60;99.90;;;;;;5021535;28;20198;-69
2021/03/03 09:19:52;;;;;;;7.93;3.13;;;-0.50;99.90;;;;;;5021837;28;20194;-69
2021/03/03 09:22:39;;;;;;;5.28;3.20;;;-0.40;99.90;;;;;;5002710;28;20201;-70
2021/03/03 09:25:08;;;;;;;9.05;3.05;;;-0.40;99.90;;;;;;5019271;28;20226;-69
2021/03/03 09:27:34;;;;;;;5.25;2.85;;;-0.40;99.90;;;;;;5013744;28;20190;-68
2021/03/03 09:29:59;;;;;;;10.32;3.00;;;-0.40;99.90;;;;;;5019423;28;20194;-68
2021/03/03 09:32:25;;;;;;;10.25;3.55;;;-0.40;99.90;;;;;;5022904;28;20267;-70
2021/03/03 09:34:55;;;;;;;4.45;3.10;;;-0.40;99.90;;;;;;5026898;28;20198;-69
2021/03/03 09:37:23;;;;;;;4.97;2.95;;;-0.50;99.90;;;;;;5021504;28;20538;-68
2021/03/03 09:39:51;;;;;;;5.60;3.13;;;-0.40;99.90;;;;;;5023389;28;20224;-69
2021/03/03 09:42:17;;;;;;;5.70;3.38;;;-0.40;99.90;;;;;;5020622;28;20397;-70
2021/03/03 09:44:54;;;;;;;11.75;3.38;;;-0.40;99.90;;;;;;5018334;28;20199;-69
2021/03/03 09:47:31;;;;;;;5.60;3.15;;;-0.40;99.90;;;;;;5005212;28;20190;-70
2021/03/03 09:49:59;;;;;;;14.48;3.28;;;-0.40;99.90;;;;;;5017944;28;20213;-69
2021/03/03 09:52:42;;;;;;;4.25;2.90;;;-0.30;99.90;;;;;;5019646;28;20198;-71
2021/03/03 09:55:12;;;;;;;3.88;2.78;;;-0.20;99.90;;;;;;5009302;28;20207;-70
2021/03/03 09:57:38;;;;;;;4.55;3.10;;;-0.20;99.90;;;;;;5021001;28;20710;-70
2021/03/03 10:00:13;;;;;;;5.43;2.78;;;-0.10;99.90;;;;;;5020687;28;20325;-68
2021/03/03 10:02:50;;;;;;;5.32;2.97;;;0.00;99.90;;;;;;5017196;28;20249;-70
2021/03/03 10:05:17;;;;;;;4.97;2.92;;;0.10;99.90;;;;;;5016029;28;20226;-68
2021/03/03 10:07:52;;;;;;;4.15;2.83;;;0.20;99.90;;;;;;5016219;28;20364;-69
2021/03/03 10:10:20;;;;;;;3.60;2.35;;;0.20;99.90;;;;;;5017836;28;20205;-70
2021/03/03 10:12:46;;;;;;;4.55;2.67;;;0.30;99.90;;;;;;5005654;28;20632;-69
2021/03/03 10:15:14;;;;;;;3.97;2.67;;;0.30;99.90;;;;;;5019454;28;20206;-69
2021/03/03 10:17:48;;;;;;;2.85;2.10;;;0.40;99.90;;;;;;5021051;28;20544;-69
2021/03/03 10:20:32;;;;;;;5.30;2.63;;;0.50;99.90;;;;;;5000647;28;20246;-69
2021/03/03 10:23:09;;;;;;;3.78;2.10;;;0.50;99.90;;;;;;5019835;28;20292;-69
2021/03/03 10:25:35;;;;;;;4.50;2.80;;;0.40;99.90;;;;;;5016468;28;20206;-70
2021/03/03 10:28:03;;;;;;;10.50;2.47;;;0.30;99.90;;;;;;4999718;28;20205;-68
2021/03/03 10:30:30;;;;;;;3.05;2.13;;;0.30;99.90;;;;;;4999774;28;20195;-69
2021/03/03 10:32:56;;;;;;;5.55;2.67;;;0.40;99.90;;;;;;5014366;28;20568;-70
2021/03/03 10:35:24;;;;;;;4.88;2.45;;;0.50;99.90;;;;;;5012220;28;20649;-69
2021/03/03 10:37:51;;;;;;;4.40;2.50;;;0.60;99.90;;;;;;4991263;28;20207;-69
2021/03/03 10:40:18;;;;;;;3.45;2.28;;;0.60;99.90;;;;;;5005366;28;20206;-70
2021/03/03 10:42:44;;;;;;;4.97;2.72;;;0.50;99.90;;;;;;5011652;28;20685;-70
2021/03/03 10:45:24;;;;;;;4.57;2.45;;;0.60;99.90;;;;;;5011571;28;20559;-69
2021/03/03 10:47:51;;;;;;;4.15;2.60;;;0.60;99.90;;;;;;5017788;28;20808;-69
2021/03/03 10:50:18;;;;;;;4.53;2.40;;;0.70;99.90;;;;;;4986953;28;20194;-70
2021/03/03 10:53:00;;;;;;;4.43;2.80;;;0.60;99.90;;;;;;5020719;28;20205;-68
2021/03/03 10:55:33;;;;;;;4.43;2.72;;;0.70;99.90;;;;;;5001002;28;20213;-70
2021/03/03 10:58:25;;;;;;;6.05;3.00;;;0.70;99.90;;;;;;5018985;28;20293;-70
2021/03/03 11:00:55;;;;;;;4.07;2.50;;;0.80;99.90;;;;;;5016063;28;20202;-67
2021/03/03 11:03:20;;;;;;;4.63;2.83;;;1.00;99.90;;;;;;5022323;28;20245;-68
2021/03/03 11:05:57;;;;;;;4.10;2.58;;;1.00;99.90;;;;;;5020252;28;20280;-69
2021/03/03 11:08:24;;;;;;;3.47;2.33;;;1.00;99.90;;;;;;5020309;28;20205;-67
2021/03/03 11:10:51;;;;;;;4.32;2.80;;;1.00;99.90;;;;;;5019762;28;20194;-67
2021/03/03 11:13:17;;;;;;;3.40;2.42;;;0.90;99.90;;;;;;5012322;28;20213;-68
2021/03/03 11:15:45;;;;;;;4.13;2.60;;;1.00;99.90;;;;;;5018793;28;20202;-69
2021/03/03 11:18:11;;;;;;;4.45;2.50;;;1.00;99.90;;;;;;5018953;28;20293;-68
2021/03/03 11:20:38;;;;;;;4.65;2.42;;;1.10;99.90;;;;;;4993478;28;21163;-67
2021/03/03 11:23:05;;;;;;;4.93;2.92;;;1.20;99.90;;;;;;5019007;28;20214;-67
2021/03/03 11:25:31;;;;;;;3.35;2.55;;;1.20;99.90;;;;;;5015003;28;20220;-70
2021/03/03 11:27:57;;;;;;;3.92;2.67;;;1.20;99.90;;;;;;5002914;28;20202;-69
2021/03/03 11:30:23;;;;;;;4.95;3.00;;;1.10;99.90;;;;;;5017189;28;20275;-70
2021/03/03 11:32:50;;;;;;;4.10;2.50;;;1.10;99.90;;;;;;5003066;28;20240;-69
2021/03/03 11:35:16;;;;;;;4.22;2.85;;;1.20;99.90;;;;;;5018754;28;20256;-68
2021/03/03 11:37:42;;;;;;;5.40;3.20;;;1.20;99.90;;;;;;5021979;28;20198;-68
2021/03/03 11:40:08;;;;;;;5.82;3.15;;;1.10;99.90;;;;;;5019607;28;20206;-68
2021/03/03 11:42:34;;;;;;;3.97;2.55;;;1.20;99.90;;;;;;5020638;28;20584;-70
2021/03/03 11:44:59;;;;;;;3.95;2.50;;;1.20;99.90;;;;;;5020562;28;20190;-70
2021/03/03 11:47:25;;;;;;;7.35;3.10;;;1.30;99.90;;;;;;5016598;28;20645;-70
2021/03/03 11:49:51;;;;;;;5.22;3.10;;;1.50;99.90;;;;;;5014966;28;20225;-69
2021/03/03 11:52:16;;;;;;;4.53;2.80;;;1.50;99.90;;;;;;5022339;28;20227;-70
2021/03/03 11:54:42;;;;;;;5.40;3.22;;;1.60;99.90;;;;;;5010426;28;20238;-68
2021/03/03 11:57:08;;;;;;;4.70;2.70;;;1.40;99.90;;;;;;5018290;28;20194;-68
2021/03/03 11:59:33;;;;;;;6.68;3.30;;;1.50;99.90;;;;;;5018025;28;20194;-68
2021/03/03 12:02:00;;;;;;;4.03;2.47;;;1.50;99.90;;;;;;5020437;28;20313;-70
2021/03/03 12:04:25;;;;;;;5.50;2.83;;;1.60;99.90;;;;;;5017690;28;20228;-68
2021/03/03 12:06:51;;;;;;;4.20;2.45;;;1.70;99.90;;;;;;5001659;28;20194;-69
2021/03/03 12:09:17;;;;;;;6.32;3.20;;;1.70;99.90;;;;;;4998613;28;20298;-68
2021/03/03 12:11:43;;;;;;;5.57;2.78;;;1.80;99.90;;;;;;4995435;28;20683;-71
2021/03/03 12:14:08;;;;;;;5.40;2.90;;;1.80;99.90;;;;;;5016130;28;20217;-69
2021/03/03 12:16:34;;;;;;;4.97;2.97;;;1.90;99.90;;;;;;4999683;28;20202;-70
2021/03/03 12:19:00;;;;;;;5.70;3.10;;;1.90;99.90;;;;;;5016277;28;20696;-69
2021/03/03 12:21:26;;;;;;;4.18;2.60;;;1.80;99.90;;;;;;5016491;28;20199;-71
2021/03/03 12:23:52;;;;;;;4.45;2.88;;;1.80;99.90;;;;;;5019902;28;20221;-68
2021/03/03 12:26:18;;;;;;;4.22;2.92;;;1.80;99.90;;;;;;5008894;28;20201;-68
2021/03/03 12:28:43;;;;;;;4.78;3.08;;;1.90;99.90;;;;;;5014814;28;20205;-68
2021/03/03 12:31:11;;;;;;;5.30;3.00;;;1.80;99.90;;;;;;4998938;28;20239;-69
2021/03/03 12:33:38;;;;;;;6.88;2.72;;;1.80;99.90;;;;;;5019339;28;20197;-70
2021/03/03 12:36:06;;;;;;;4.03;2.70;;;1.90;99.90;;;;;;5011456;28;20224;-69
2021/03/03 12:38:32;;;;;;;4.75;2.80;;;1.80;99.90;;;;;;5014043;28;20202;-71
2021/03/03 12:40:58;;;;;;;4.03;2.95;;;1.80;99.90;;;;;;5010883;28;20202;-69
2021/03/03 12:43:23;;;;;;;4.70;2.60;;;1.80;99.90;;;;;;5017709;28;20222;-70
2021/03/03 12:45:49;;;;;;;3.92;2.80;;;1.90;99.90;;;;;;5017293;28;20229;-68
2021/03/03 12:48:15;;;;;;;4.40;2.97;;;1.90;99.90;;;;;;5017378;28;20198;-71
2021/03/03 12:50:41;;;;;;;3.17;2.08;;;1.90;99.90;;;;;;5014038;28;20305;-70
2021/03/03 12:53:07;;;;;;;4.57;2.70;;;1.90;99.90;;;;;;5020212;28;20279;-69
2021/03/03 12:55:32;;;;;;;4.90;2.90;;;1.90;99.90;;;;;;5013260;28;20190;-69
2021/03/03 12:57:59;;;;;;;4.03;2.88;;;2.00;99.90;;;;;;5017316;28;20684;-69